Time;durP1;ratioP1;P1;durP2;ratioP2;P2;SDS_P1;SDS_P2;PMS_P1;PMS_P2;Temp;Humidity;BMP_temperature;BMP_pressure;BME280_temperature;BME280_humidity;BME280_pressure;Samples;Min_cycle;Max_cycle;Signal;HPM_P1;HPM_P2
2023/04/18 00:00:23;;;;;;;29.40;14.43;;;;;;;;;;5051288;28;20068;-79
2023/04/18 00:02:52;;;;;;;29.52;14.05;;;;;;;;;;5050841;28;20448;-79
2023/04/18 00:05:18;;;;;;;35.63;17.27;;;;;;;;;;5053015;28;20029;-79
2023/04/18 00:07:44;;;;;;;37.63;16.75;;;;;;;;;;5053237;28;20043;-79
2023/04/18 00:10:10;;;;;;;32.60;14.65;;;;;;;;;;5068166;28;20033;-79
2023/04/18 00:12:35;;;;;;;29.75;14.38;;;;;;;;;;5052222;28;20020;-79
2023/04/18 00:15:03;;;;;;;29.80;16.23;;;;;;;;;;5053036;28;20021;-79
2023/04/18 00:17:30;;;;;;;33.22;15.80;;;;;;;;;;5053491;28;20426;-79
2023/04/18 00:19:57;;;;;;;33.85;16.38;;;;;;;;;;5051977;28;20111;-79
2023/04/18 00:22:23;;;;;;;31.05;15.60;;;;;;;;;;5051764;28;20025;-79
2023/04/18 00:24:52;;;;;;;35.88;16.10;;;;;;;;;;5053339;28;20409;-80
2023/04/18 00:27:18;;;;;;;32.50;16.88;;;;;;;;;;5051976;28;20090;-78
2023/04/18 00:29:43;;;;;;;36.25;16.98;;;;;;;;;;5053483;28;20095;-79
2023/04/18 00:32:09;;;;;;;34.47;17.27;;;;;;;;;;5051547;28;20107;-79
2023/04/18 00:34:37;;;;;;;36.90;16.83;;;;;;;;;;5052068;28;20124;-79
2023/04/18 00:37:03;;;;;;;33.05;16.98;;;;;;;;;;5051741;28;20532;-80
2023/04/18 00:39:28;;;;;;;37.28;16.42;;;;;;;;;;5068923;28;20045;-80
2023/04/18 00:41:54;;;;;;;31.83;16.35;;;;;;;;;;5052746;28;20029;-80
2023/04/18 00:44:19;;;;;;;37.38;17.90;;;;;;;;;;5051092;28;20017;-80
2023/04/18 00:46:45;;;;;;;36.97;17.65;;;;;;;;;;5051422;28;20045;-80
2023/04/18 00:49:11;;;;;;;35.15;17.10;;;;;;;;;;5053860;28;20028;-80
2023/04/18 00:51:38;;;;;;;40.42;18.25;;;;;;;;;;5054176;28;20029;-80
2023/04/18 00:54:06;;;;;;;39.00;17.63;;;;;;;;;;5051669;28;20029;-80
2023/04/18 00:56:33;;;;;;;39.58;18.20;;;;;;;;;;5053184;28;20031;-80
2023/04/18 00:59:00;;;;;;;38.97;18.52;;;;;;;;;;5051329;28;20088;-80
2023/04/18 01:01:26;;;;;;;36.38;17.05;;;;;;;;;;5051534;28;20025;-79
2023/04/18 01:03:51;;;;;;;37.63;18.00;;;;;;;;;;5050740;28;20025;-79
2023/04/18 01:06:17;;;;;;;35.90;17.58;;;;;;;;;;5051387;28;20032;-79
2023/04/18 01:08:44;;;;;;;38.97;18.58;;;;;;;;;;5050670;28;20124;-79
2023/04/18 01:11:09;;;;;;;39.28;18.80;;;;;;;;;;5051786;28;20029;-79
2023/04/18 01:13:35;;;;;;;40.08;20.38;;;;;;;;;;5052532;28;20051;-80
2023/04/18 01:16:00;;;;;;;34.78;17.73;;;;;;;;;;5052906;28;20060;-80
2023/04/18 01:18:26;;;;;;;38.72;18.15;;;;;;;;;;5052291;28;20035;-79
2023/04/18 01:20:52;;;;;;;36.10;18.20;;;;;;;;;;5051038;28;20024;-80
2023/04/18 01:23:19;;;;;;;35.03;17.98;;;;;;;;;;5051595;28;20029;-80
2023/04/18 01:25:45;;;;;;;37.63;17.30;;;;;;;;;;5053285;28;20099;-79
2023/04/18 01:28:13;;;;;;;34.08;16.92;;;;;;;;;;5051782;28;20033;-80
2023/04/18 01:30:39;;;;;;;41.00;18.92;;;;;;;;;;5052590;28;20397;-80
2023/04/18 01:33:05;;;;;;;34.90;17.33;;;;;;;;;;5053033;28;20036;-80
2023/04/18 01:35:31;;;;;;;37.10;18.92;;;;;;;;;;5051115;28;20114;-80
2023/04/18 01:37:58;;;;;;;34.70;18.20;;;;;;;;;;5050122;28;20077;-80
2023/04/18 01:40:24;;;;;;;39.45;18.98;;;;;;;;;;5051745;28;20037;-80
2023/04/18 01:42:49;;;;;;;36.83;17.83;;;;;;;;;;5051500;28;20039;-79
2023/04/18 01:45:16;;;;;;;36.40;18.95;;;;;;;;;;5054625;28;20047;-79
2023/04/18 01:47:42;;;;;;;33.00;17.38;;;;;;;;;;5053669;28;20049;-80
2023/04/18 01:50:08;;;;;;;37.85;19.67;;;;;;;;;;5053360;28;20449;-79
2023/04/18 01:52:34;;;;;;;35.58;17.60;;;;;;;;;;5054809;28;20055;-79
2023/04/18 01:55:04;;;;;;;35.28;17.98;;;;;;;;;;5054688;28;20112;-79
2023/04/18 01:57:35;;;;;;;36.60;19.83;;;;;;;;;;5055787;28;20024;-79
2023/04/18 02:00:02;;;;;;;34.85;18.23;;;;;;;;;;5055412;28;20096;-79
2023/04/18 02:02:27;;;;;;;35.42;19.33;;;;;;;;;;5054170;28;20032;-79
2023/04/18 02:04:53;;;;;;;37.03;19.15;;;;;;;;;;5053955;28;20021;-79
2023/04/18 02:07:18;;;;;;;34.20;17.92;;;;;;;;;;5054708;28;20025;-79
2023/04/18 02:09:44;;;;;;;35.60;18.30;;;;;;;;;;5055030;28;20120;-79
2023/04/18 02:12:11;;;;;;;36.38;19.67;;;;;;;;;;5053194;28;20032;-79
2023/04/18 02:14:36;;;;;;;38.35;20.25;;;;;;;;;;5053899;28;20032;-80
2023/04/18 02:17:02;;;;;;;36.90;19.20;;;;;;;;;;5054844;28;20120;-80
2023/04/18 02:19:28;;;;;;;35.13;18.67;;;;;;;;;;5054147;28;20025;-80
2023/04/18 02:21:54;;;;;;;36.75;19.40;;;;;;;;;;5055846;28;20032;-79
2023/04/18 02:24:20;;;;;;;37.72;19.77;;;;;;;;;;5055318;28;20025;-79
2023/04/18 02:26:45;;;;;;;40.33;20.95;;;;;;;;;;5055856;28;20020;-79
2023/04/18 02:29:11;;;;;;;37.15;19.48;;;;;;;;;;5053631;28;20115;-79
2023/04/18 02:31:39;;;;;;;39.05;20.63;;;;;;;;;;5053847;28;20473;-79
2023/04/18 02:34:04;;;;;;;40.75;21.45;;;;;;;;;;5053805;28;20147;-79
2023/04/18 02:36:30;;;;;;;38.85;19.85;;;;;;;;;;5053275;28;20075;-79
2023/04/18 02:38:55;;;;;;;34.97;18.80;;;;;;;;;;5053900;28;20025;-79
2023/04/18 02:41:21;;;;;;;35.75;19.13;;;;;;;;;;5053963;28;20032;-78
2023/04/18 02:43:47;;;;;;;40.20;21.15;;;;;;;;;;5051849;28;20090;-78
2023/04/18 02:46:12;;;;;;;33.78;18.17;;;;;;;;;;5051875;28;20031;-80
2023/04/18 02:48:38;;;;;;;39.22;21.67;;;;;;;;;;5052578;28;20045;-80
2023/04/18 02:51:04;;;;;;;36.85;19.73;;;;;;;;;;5052999;28;20027;-80
2023/04/18 02:53:31;;;;;;;37.97;19.17;;;;;;;;;;5054305;28;20437;-80
2023/04/18 02:55:57;;;;;;;39.42;19.27;;;;;;;;;;5052635;28;20020;-80
2023/04/18 02:58:22;;;;;;;34.75;18.90;;;;;;;;;;5053002;28;20262;-80
2023/04/18 03:00:49;;;;;;;36.17;19.42;;;;;;;;;;5054010;28;20477;-80
2023/04/18 03:03:15;;;;;;;43.70;19.17;;;;;;;;;;5054437;28;20020;-79
2023/04/18 03:05:41;;;;;;;33.80;18.75;;;;;;;;;;5052809;28;20052;-79
2023/04/18 03:08:07;;;;;;;32.95;19.38;;;;;;;;;;5055439;28;20539;-80
2023/04/18 03:10:33;;;;;;;40.17;19.98;;;;;;;;;;5055305;28;20029;-80
2023/04/18 03:12:58;;;;;;;34.47;19.08;;;;;;;;;;5052706;28;20024;-79
2023/04/18 03:15:24;;;;;;;38.85;18.88;;;;;;;;;;5053077;28;20091;-79
2023/04/18 03:17:50;;;;;;;33.25;17.75;;;;;;;;;;5051190;28;20037;-79
2023/04/18 03:20:16;;;;;;;33.15;18.25;;;;;;;;;;5050696;28;20033;-80
2023/04/18 03:22:41;;;;;;;33.50;19.85;;;;;;;;;;5052514;28;20029;-80
2023/04/18 03:25:07;;;;;;;31.90;18.33;;;;;;;;;;5053042;28;20037;-79
2023/04/18 03:27:33;;;;;;;35.50;19.20;;;;;;;;;;5053189;28;20025;-80
2023/04/18 03:29:58;;;;;;;38.20;19.60;;;;;;;;;;5054100;28;20031;-79
2023/04/18 03:32:24;;;;;;;35.53;19.73;;;;;;;;;;5054171;28;20554;-79
2023/04/18 03:34:50;;;;;;;34.38;18.40;;;;;;;;;;5054027;28;20029;-80
2023/04/18 03:37:15;;;;;;;35.42;18.38;;;;;;;;;;5053810;28;20444;-79
2023/04/18 03:39:41;;;;;;;39.38;20.02;;;;;;;;;;5069211;28;20059;-79
2023/04/18 03:42:06;;;;;;;32.53;17.02;;;;;;;;;;5052112;28;20064;-80
2023/04/18 03:44:32;;;;;;;35.53;17.88;;;;;;;;;;5053743;28;20033;-79
2023/04/18 03:46:57;;;;;;;32.15;17.92;;;;;;;;;;5053047;28;20057;-79
2023/04/18 03:49:23;;;;;;;32.55;19.15;;;;;;;;;;5053352;28;20033;-80
2023/04/18 03:51:48;;;;;;;31.58;18.50;;;;;;;;;;5051775;28;20324;-79
2023/04/18 03:54:15;;;;;;;31.10;16.88;;;;;;;;;;5068827;28;20032;-79
2023/04/18 03:56:41;;;;;;;34.22;19.10;;;;;;;;;;5052030;28;20052;-79
2023/04/18 03:59:07;;;;;;;34.65;19.35;;;;;;;;;;5051324;28;20063;-78
2023/04/18 04:01:32;;;;;;;26.58;16.40;;;;;;;;;;5052408;28;20021;-78
2023/04/18 04:04:00;;;;;;;33.63;18.65;;;;;;;;;;5052224;28;20119;-79
2023/04/18 04:06:26;;;;;;;30.50;18.13;;;;;;;;;;5053655;28;20028;-79
2023/04/18 04:08:52;;;;;;;28.92;16.27;;;;;;;;;;5052570;28;20481;-79
2023/04/18 04:11:18;;;;;;;31.65;16.98;;;;;;;;;;5053025;28;20131;-79
2023/04/18 04:13:43;;;;;;;33.22;17.85;;;;;;;;;;5052050;28;20025;-79
2023/04/18 04:16:09;;;;;;;37.17;18.65;;;;;;;;;;5053770;28;20524;-79
2023/04/18 04:18:34;;;;;;;33.85;18.35;;;;;;;;;;5053406;28;20107;-79
2023/04/18 04:21:00;;;;;;;33.05;17.25;;;;;;;;;;5053382;28;20032;-79
2023/04/18 04:23:26;;;;;;;34.63;18.45;;;;;;;;;;5051691;28;20033;-78
2023/04/18 04:25:52;;;;;;;32.38;17.88;;;;;;;;;;5051634;28;20025;-80
2023/04/18 04:28:21;;;;;;;33.22;17.48;;;;;;;;;;5068257;28;20017;-81
2023/04/18 04:30:49;;;;;;;32.03;17.50;;;;;;;;;;5051068;28;20497;-79
2023/04/18 04:33:15;;;;;;;30.80;17.38;;;;;;;;;;5052315;28;20021;-80
2023/04/18 04:35:42;;;;;;;34.25;17.48;;;;;;;;;;5051307;28;20128;-80
2023/04/18 04:38:07;;;;;;;30.80;18.02;;;;;;;;;;5052095;28;20090;-79
2023/04/18 04:40:33;;;;;;;37.15;19.92;;;;;;;;;;5050951;28;20028;-79
2023/04/18 04:42:58;;;;;;;35.05;17.63;;;;;;;;;;5050964;28;20005;-77
2023/04/18 04:45:24;;;;;;;35.30;18.15;;;;;;;;;;5044726;28;20029;-81
2023/04/18 04:47:49;;;;;;;31.17;17.92;;;;;;;;;;5032414;28;20104;-79
2023/04/18 04:50:16;;;;;;;33.85;18.20;;;;;;;;;;5031130;28;20124;-79
2023/04/18 04:52:42;;;;;;;33.10;17.80;;;;;;;;;;5032268;28;20038;-80
2023/04/18 04:55:09;;;;;;;35.67;18.00;;;;;;;;;;5032156;28;20025;-81
2023/04/18 04:57:35;;;;;;;31.83;17.13;;;;;;;;;;5031963;28;20092;-79
2023/04/18 05:00:00;;;;;;;33.35;18.05;;;;;;;;;;5033052;28;20400;-80
2023/04/18 05:02:27;;;;;;;37.20;18.80;;;;;;;;;;5032061;28;20040;-80
2023/04/18 05:04:53;;;;;;;37.65;17.88;;;;;;;;;;5032488;28;20450;-80
2023/04/18 05:07:18;;;;;;;29.38;16.15;;;;;;;;;;5031630;28;20113;-80
2023/04/18 05:09:44;;;;;;;37.13;17.40;;;;;;;;;;5033426;28;20473;-80
2023/04/18 05:12:09;;;;;;;36.92;18.25;;;;;;;;;;5035901;28;20143;-81
2023/04/18 05:14:35;;;;;;;33.03;17.23;;;;;;;;;;5040122;28;20048;-79
2023/04/18 05:17:01;;;;;;;30.95;18.10;;;;;;;;;;5047840;28;20037;-79
2023/04/18 05:19:26;;;;;;;34.38;17.65;;;;;;;;;;5044365;28;20070;-78
2023/04/18 05:21:52;;;;;;;33.42;17.30;;;;;;;;;;5063195;28;20112;-77
2023/04/18 05:24:18;;;;;;;30.10;16.85;;;;;;;;;;5041656;28;20028;-80
2023/04/18 05:26:43;;;;;;;46.67;30.08;;;;;;;;;;5056230;28;20029;-79
2023/04/18 05:29:09;;;;;;;31.85;18.27;;;;;;;;;;5047009;28;20024;-79
2023/04/18 05:31:34;;;;;;;29.92;17.20;;;;;;;;;;5055402;28;20496;-80
2023/04/18 05:34:00;;;;;;;32.55;16.63;;;;;;;;;;5043187;28;20100;-79
2023/04/18 05:36:25;;;;;;;32.25;17.35;;;;;;;;;;5045806;28;20040;-79
2023/04/18 05:38:51;;;;;;;37.22;18.10;;;;;;;;;;5061401;28;20058;-79
2023/04/18 05:41:16;;;;;;;33.90;16.98;;;;;;;;;;5043690;28;20465;-79
2023/04/18 05:43:42;;;;;;;33.15;18.25;;;;;;;;;;5045681;28;20029;-78
2023/04/18 05:46:08;;;;;;;33.13;17.52;;;;;;;;;;5041333;28;20029;-78
2023/04/18 05:48:33;;;;;;;31.20;15.55;;;;;;;;;;5047275;28;20057;-80
2023/04/18 05:50:59;;;;;;;25.77;15.73;;;;;;;;;;5059985;28;20068;-77
2023/04/18 05:53:26;;;;;;;30.30;16.85;;;;;;;;;;5043906;28;20044;-79
2023/04/18 05:55:52;;;;;;;34.20;17.08;;;;;;;;;;5045716;28;20040;-78
2023/04/18 05:58:17;;;;;;;31.70;17.05;;;;;;;;;;5064974;28;20066;-78
2023/04/18 06:00:43;;;;;;;29.33;16.95;;;;;;;;;;5047485;28;20060;-79
2023/04/18 06:03:08;;;;;;;26.15;14.50;;;;;;;;;;5045750;28;20775;-79
2023/04/18 06:05:34;;;;;;;27.42;14.43;;;;;;;;;;5062004;28;20365;-79
2023/04/18 06:08:00;;;;;;;24.50;14.07;;;;;;;;;;5050040;28;20537;-79
2023/04/18 06:10:25;;;;;;;26.90;14.55;;;;;;;;;;5045273;28;20498;-79
2023/04/18 06:12:51;;;;;;;25.60;13.93;;;;;;;;;;5041121;28;20068;-78
2023/04/18 06:15:16;;;;;;;25.92;14.13;;;;;;;;;;5047229;28;20560;-80
2023/04/18 06:17:43;;;;;;;28.25;14.93;;;;;;;;;;5044973;28;20840;-79
2023/04/18 06:20:10;;;;;;;27.58;13.90;;;;;;;;;;5041315;28;20042;-79
2023/04/18 06:22:36;;;;;;;29.75;15.63;;;;;;;;;;5041435;28;20375;-79
2023/04/18 06:25:02;;;;;;;25.63;13.73;;;;;;;;;;5052757;28;20159;-79
2023/04/18 06:27:28;;;;;;;27.10;14.40;;;;;;;;;;5046790;28;20060;-82
2023/04/18 06:29:53;;;;;;;25.80;13.73;;;;;;;;;;5049408;28;20130;-79
2023/04/18 06:32:19;;;;;;;31.65;15.05;;;;;;;;;;5045431;28;20036;-80
2023/04/18 06:34:45;;;;;;;25.13;14.40;;;;;;;;;;5041708;28;20025;-81
2023/04/18 06:37:11;;;;;;;33.42;15.20;;;;;;;;;;5047940;28;20061;-79
2023/04/18 06:39:36;;;;;;;24.75;14.15;;;;;;;;;;5052453;28;20033;-79
2023/04/18 06:42:04;;;;;;;27.80;14.25;;;;;;;;;;5050568;28;20083;-81
2023/04/18 06:44:35;;;;;;;31.15;15.13;;;;;;;;;;5049372;28;20025;-81
2023/04/18 06:47:01;;;;;;;29.75;15.40;;;;;;;;;;5049136;28;20060;-79
2023/04/18 06:49:27;;;;;;;31.65;15.85;;;;;;;;;;5052538;28;20487;-80
2023/04/18 06:51:53;;;;;;;31.38;15.27;;;;;;;;;;5048042;28;20025;-78
2023/04/18 06:54:18;;;;;;;27.95;14.95;;;;;;;;;;5041685;28;20044;-80
2023/04/18 06:56:44;;;;;;;28.63;15.25;;;;;;;;;;5048658;28;20021;-80
2023/04/18 06:59:10;;;;;;;33.15;16.05;;;;;;;;;;5043977;28;20029;-80
2023/04/18 07:01:42;;;;;;;28.73;15.05;;;;;;;;;;5043906;28;20112;-79
2023/04/18 07:04:08;;;;;;;32.72;16.50;;;;;;;;;;5040115;28;20523;-79
2023/04/18 07:06:35;;;;;;;28.25;14.27;;;;;;;;;;5051876;28;20049;-80
2023/04/18 07:09:01;;;;;;;31.05;15.35;;;;;;;;;;5044766;28;20021;-80
2023/04/18 07:11:27;;;;;;;31.90;15.40;;;;;;;;;;5042948;28;20028;-81
2023/04/18 07:13:53;;;;;;;26.90;14.38;;;;;;;;;;5040663;28;20017;-80
2023/04/18 07:16:19;;;;;;;30.90;14.90;;;;;;;;;;5040353;28;20059;-83
2023/04/18 07:18:45;;;;;;;33.08;14.68;;;;;;;;;;5031443;28;20032;-78
2023/04/18 07:21:10;;;;;;;28.17;14.80;;;;;;;;;;5042882;28;21522;-78
2023/04/18 07:23:36;;;;;;;26.83;14.15;;;;;;;;;;5044646;28;20039;-77
2023/04/18 07:26:04;;;;;;;31.45;14.60;;;;;;;;;;5040698;28;20021;-76
2023/04/18 07:28:30;;;;;;;24.38;13.55;;;;;;;;;;5042995;28;20020;-80
2023/04/18 07:30:56;;;;;;;29.13;14.23;;;;;;;;;;5041023;28;20128;-78
2023/04/18 07:33:22;;;;;;;25.88;14.27;;;;;;;;;;5037794;28;20364;-81
2023/04/18 07:35:49;;;;;;;24.40;13.15;;;;;;;;;;5037898;28;20029;-78
2023/04/18 07:38:15;;;;;;;24.48;12.90;;;;;;;;;;5038412;28;20124;-79
2023/04/18 07:40:41;;;;;;;23.92;13.65;;;;;;;;;;5045893;28;20103;-79
2023/04/18 07:43:07;;;;;;;25.92;13.82;;;;;;;;;;5036150;28;20433;-79
2023/04/18 07:45:35;;;;;;;28.17;15.07;;;;;;;;;;5044633;28;20037;-80
2023/04/18 07:48:01;;;;;;;30.58;14.10;;;;;;;;;;5039772;28;20040;-79
2023/04/18 07:50:28;;;;;;;27.42;14.15;;;;;;;;;;5044180;28;20652;-78
2023/04/18 07:52:54;;;;;;;28.55;14.43;;;;;;;;;;5042229;28;20033;-80
2023/04/18 07:55:20;;;;;;;25.55;13.45;;;;;;;;;;5018441;28;20090;-78
2023/04/18 07:57:49;;;;;;;25.15;13.68;;;;;;;;;;5032618;28;20749;-84
2023/04/18 08:00:18;;;;;;;23.75;13.23;;;;;;;;;;5053695;28;20029;-78
2023/04/18 08:02:45;;;;;;;23.65;12.70;;;;;;;;;;5040299;28;20039;-78
2023/04/18 08:05:11;;;;;;;20.27;12.77;;;;;;;;;;5031382;28;20127;-78
2023/04/18 08:07:37;;;;;;;26.50;13.07;;;;;;;;;;5047487;28;20553;-78
2023/04/18 08:10:21;;;;;;;24.50;14.07;;;;;;;;;;5041515;28;20107;-81
2023/04/18 08:12:48;;;;;;;23.83;12.38;;;;;;;;;;5042399;28;20028;-80
2023/04/18 08:15:13;;;;;;;20.73;13.25;;;;;;;;;;5045898;28;20020;-81
2023/04/18 08:17:43;;;;;;;25.73;14.32;;;;;;;;;;5044377;28;20516;-80
2023/04/18 08:20:11;;;;;;;26.35;13.20;;;;;;;;;;5036793;28;20515;-79
2023/04/18 08:22:37;;;;;;;22.10;12.18;;;;;;;;;;5050806;28;20095;-78
2023/04/18 08:25:03;;;;;;;26.92;13.20;;;;;;;;;;5031029;28;20029;-76
2023/04/18 08:27:29;;;;;;;30.20;13.13;;;;;;;;;;5036376;28;20048;-79
2023/04/18 08:29:56;;;;;;;23.38;12.55;;;;;;;;;;5041869;28;20774;-79
2023/04/18 08:32:31;;;;;;;24.92;12.85;;;;;;;;;;5044433;28;20059;-78
2023/04/18 08:34:57;;;;;;;19.50;11.27;;;;;;;;;;5038493;28;20039;-80
2023/04/18 08:37:22;;;;;;;21.80;12.38;;;;;;;;;;5043752;28;20029;-80
2023/04/18 08:39:48;;;;;;;21.35;10.95;;;;;;;;;;5038487;28;20132;-78
2023/04/18 08:42:18;;;;;;;20.13;11.27;;;;;;;;;;5043209;28;20421;-80
2023/04/18 08:44:46;;;;;;;17.40;10.23;;;;;;;;;;5037454;28;20095;-82
2023/04/18 08:47:15;;;;;;;23.35;13.65;;;;;;;;;;5037725;28;20091;-80
2023/04/18 08:49:44;;;;;;;22.75;11.30;;;;;;;;;;5040900;28;20037;-82
2023/04/18 08:52:12;;;;;;;25.77;12.23;;;;;;;;;;5045470;28;20070;-82
2023/04/18 08:54:41;;;;;;;27.33;12.35;;;;;;;;;;5040360;28;20236;-81
2023/04/18 08:57:09;;;;;;;22.27;12.10;;;;;;;;;;5041964;28;20029;-81
2023/04/18 08:59:35;;;;;;;24.48;13.43;;;;;;;;;;5040104;28;20415;-78
2023/04/18 09:02:02;;;;;;;20.20;11.10;;;;;;;;;;5044210;28;20043;-81
2023/04/18 09:04:38;;;;;;;18.58;10.82;;;;;;;;;;5039564;28;20090;-79
2023/04/18 09:07:09;;;;;;;20.38;12.23;;;;;;;;;;5051294;28;20059;-81
2023/04/18 09:09:50;;;;;;;30.25;12.52;;;;;;;;;;5026081;28;20121;-83
2023/04/18 09:12:27;;;;;;;21.77;11.05;;;;;;;;;;5064263;28;20044;-79
2023/04/18 09:14:57;;;;;;;23.02;11.23;;;;;;;;;;5062132;28;20591;-82
2023/04/18 09:17:49;;;;;;;18.15;11.13;;;;;;;;;;5049753;28;20055;-86
2023/04/18 09:20:47;;;;;;;19.50;9.93;;;;;;;;;;5053803;28;20033;-81
2023/04/18 09:23:23;;;;;;;17.58;10.73;;;;;;;;;;5054331;28;20150;-84
2023/04/18 09:25:51;;;;;;;21.05;10.27;;;;;;;;;;5052939;28;20030;-77
2023/04/18 09:28:32;;;;;;;22.95;10.00;;;;;;;;;;5057657;28;20102;-82
2023/04/18 09:31:14;;;;;;;17.85;9.68;;;;;;;;;;5053129;28;20035;-81
2023/04/18 09:33:51;;;;;;;17.73;9.75;;;;;;;;;;5063279;28;20048;-82
2023/04/18 09:36:18;;;;;;;14.93;8.52;;;;;;;;;;5046104;28;20029;-78
2023/04/18 09:38:45;;;;;;;14.70;8.30;;;;;;;;;;5051464;28;20030;-80
2023/04/18 09:41:14;;;;;;;13.38;8.15;;;;;;;;;;5048275;28;21047;-81
2023/04/18 09:43:40;;;;;;;13.38;8.45;;;;;;;;;;5028714;28;20041;-80
2023/04/18 09:46:11;;;;;;;14.57;8.85;;;;;;;;;;5040999;28;20047;-82
2023/04/18 09:48:38;;;;;;;16.15;8.80;;;;;;;;;;5040674;28;20104;-82
2023/04/18 09:51:10;;;;;;;15.82;9.50;;;;;;;;;;5036737;28;20120;-80
2023/04/18 09:53:40;;;;;;;19.80;9.52;;;;;;;;;;5062823;28;20106;-80
2023/04/18 09:56:11;;;;;;;13.52;8.52;;;;;;;;;;5060355;28;20064;-79
2023/04/18 09:58:40;;;;;;;12.43;8.17;;;;;;;;;;5051882;28;20013;-80
2023/04/18 10:01:07;;;;;;;14.60;7.95;;;;;;;;;;5052530;28;20033;-80
2023/04/18 10:03:43;;;;;;;13.75;8.00;;;;;;;;;;5052782;28;20465;-83
2023/04/18 10:06:10;;;;;;;11.20;8.63;;;;;;;;;;5037009;28;20121;-78
2023/04/18 10:08:36;;;;;;;15.50;7.57;;;;;;;;;;5059101;28;20051;-78
2023/04/18 10:11:03;;;;;;;18.60;9.25;;;;;;;;;;5039247;28;20029;-79
2023/04/18 10:13:30;;;;;;;15.45;8.60;;;;;;;;;;5046014;28;20370;-79
2023/04/18 10:15:56;;;;;;;13.48;8.40;;;;;;;;;;5052312;28;20033;-80
2023/04/18 10:18:23;;;;;;;12.80;8.55;;;;;;;;;;5044187;28;20485;-79
2023/04/18 10:20:49;;;;;;;14.43;7.80;;;;;;;;;;5047975;28;20032;-79
2023/04/18 10:23:30;;;;;;;14.40;8.73;;;;;;;;;;5051290;28;20822;-79
2023/04/18 10:25:57;;;;;;;16.48;8.75;;;;;;;;;;5055779;28;20020;-81
2023/04/18 10:28:26;;;;;;;11.23;8.02;;;;;;;;;;5054840;28;20131;-81
2023/04/18 10:30:55;;;;;;;14.45;7.80;;;;;;;;;;5045831;28;20033;-80
2023/04/18 10:33:22;;;;;;;15.48;7.72;;;;;;;;;;5067694;28;20057;-81
2023/04/18 10:35:57;;;;;;;10.25;7.05;;;;;;;;;;5048790;28;20103;-79
2023/04/18 10:38:23;;;;;;;9.35;6.78;;;;;;;;;;5052377;28;20052;-79
2023/04/18 10:40:49;;;;;;;11.60;7.05;;;;;;;;;;5045162;28;20033;-79
2023/04/18 10:43:14;;;;;;;10.80;6.75;;;;;;;;;;5044697;28;20067;-79
2023/04/18 10:45:40;;;;;;;12.05;7.47;;;;;;;;;;5046789;28;20028;-80
2023/04/18 10:48:28;;;;;;;15.60;8.70;;;;;;;;;;5047859;28;20045;-79
2023/04/18 10:51:21;;;;;;;9.43;6.20;;;;;;;;;;5039201;28;20032;-79
2023/04/18 10:54:08;;;;;;;12.00;6.50;;;;;;;;;;5048462;28;20032;-79
2023/04/18 10:56:34;;;;;;;8.27;5.75;;;;;;;;;;5043519;28;20025;-81
2023/04/18 10:59:01;;;;;;;9.13;6.13;;;;;;;;;;5054791;28;20036;-81
2023/04/18 11:01:29;;;;;;;11.32;6.47;;;;;;;;;;5051606;28;20024;-81
2023/04/18 11:03:56;;;;;;;8.90;6.05;;;;;;;;;;5048542;28;20112;-81
2023/04/18 11:06:22;;;;;;;9.98;6.32;;;;;;;;;;5050079;28;20051;-80
2023/04/18 11:09:12;;;;;;;16.48;7.35;;;;;;;;;;5050376;28;20346;-82
2023/04/18 11:11:38;;;;;;;10.85;6.78;;;;;;;;;;5048293;28;20401;-83
2023/04/18 11:14:04;;;;;;;10.32;6.55;;;;;;;;;;5034583;28;20489;-81
2023/04/18 11:16:33;;;;;;;21.73;8.02;;;;;;;;;;5050949;28;20036;-82
2023/04/18 11:18:59;;;;;;;13.05;7.82;;;;;;;;;;5034127;28;20036;-82
2023/04/18 11:21:28;;;;;;;12.90;7.35;;;;;;;;;;5053977;28;20021;-81
2023/04/18 11:23:57;;;;;;;10.65;7.57;;;;;;;;;;5053173;28;20025;-82
2023/04/18 11:26:27;;;;;;;11.85;8.43;;;;;;;;;;5048936;28;20033;-82
2023/04/18 11:28:58;;;;;;;13.05;7.95;;;;;;;;;;5048413;28;20535;-80
2023/04/18 11:31:24;;;;;;;11.88;7.40;;;;;;;;;;5068274;28;20051;-83
2023/04/18 11:33:51;;;;;;;13.05;7.40;;;;;;;;;;5047373;28;20023;-80
2023/04/18 11:36:16;;;;;;;10.95;6.65;;;;;;;;;;5046868;28;20028;-79
2023/04/18 11:38:42;;;;;;;11.32;7.57;;;;;;;;;;5046217;28;20029;-82
2023/04/18 11:41:14;;;;;;;10.90;6.75;;;;;;;;;;5045101;28;20477;-82
2023/04/18 11:43:45;;;;;;;11.85;7.15;;;;;;;;;;5064033;28;20074;-82
2023/04/18 11:46:12;;;;;;;18.85;8.05;;;;;;;;;;5049384;28;20051;-81
2023/04/18 11:48:46;;;;;;;10.23;6.97;;;;;;;;;;5044241;28;20045;-80
2023/04/18 11:51:45;;;;;;;14.90;7.05;;;;;;;;;;5046856;28;20049;-79
2023/04/18 11:54:40;;;;;;;13.10;7.20;;;;;;;;;;5047609;28;20047;-80
2023/04/18 11:57:17;;;;;;;17.20;7.72;;;;;;;;;;5070795;28;20036;-80
2023/04/18 11:59:57;;;;;;;21.75;8.10;;;;;;;;;;5048612;28;20081;-80
2023/04/18 12:02:38;;;;;;;10.95;7.00;;;;;;;;;;5051151;28;20114;-81
2023/04/18 12:05:04;;;;;;;11.43;7.20;;;;;;;;;;5063842;28;20040;-79
2023/04/18 12:07:46;;;;;;;13.85;7.65;;;;;;;;;;5063722;28;20063;-80
2023/04/18 12:10:22;;;;;;;14.60;7.95;;;;;;;;;;5051298;28;20064;-82
2023/04/18 12:12:52;;;;;;;11.45;7.75;;;;;;;;;;5052169;28;20066;-83
2023/04/18 12:15:19;;;;;;;10.27;7.22;;;;;;;;;;5049934;28;20037;-82
2023/04/18 12:17:47;;;;;;;11.68;7.97;;;;;;;;;;5061232;28;20100;-83
2023/04/18 12:20:14;;;;;;;11.32;6.93;;;;;;;;;;5055753;28;20838;-85
2023/04/18 12:22:48;;;;;;;13.45;8.15;;;;;;;;;;5057605;28;20058;-81
2023/04/18 12:25:25;;;;;;;12.73;7.78;;;;;;;;;;5048104;28;20013;-82
2023/04/18 12:27:54;;;;;;;11.90;7.13;;;;;;;;;;5047727;28;20009;-81
2023/04/18 12:30:31;;;;;;;12.05;7.93;;;;;;;;;;5049974;28;20028;-83
2023/04/18 12:33:01;;;;;;;14.50;8.18;;;;;;;;;;5051070;28;20080;-82
2023/04/18 12:35:27;;;;;;;12.63;7.70;;;;;;;;;;5047121;28;20032;-83
2023/04/18 12:37:55;;;;;;;14.88;8.15;;;;;;;;;;5052403;28;20024;-81
2023/04/18 12:40:22;;;;;;;13.65;8.10;;;;;;;;;;5046659;28;20064;-79
2023/04/18 12:42:50;;;;;;;17.92;8.85;;;;;;;;;;5041940;28;20028;-80
2023/04/18 12:45:17;;;;;;;14.85;8.32;;;;;;;;;;5047770;28;20044;-81
2023/04/18 12:47:47;;;;;;;16.95;8.98;;;;;;;;;;5051182;28;20049;-82
2023/04/18 12:50:21;;;;;;;16.23;8.90;;;;;;;;;;5050033;28;20097;-81
2023/04/18 12:52:47;;;;;;;19.45;10.52;;;;;;;;;;5052882;28;20054;-83
2023/04/18 12:55:13;;;;;;;13.73;8.27;;;;;;;;;;5053656;28;20043;-84
2023/04/18 12:57:40;;;;;;;14.68;8.70;;;;;;;;;;5052486;28;20060;-82
2023/04/18 13:00:09;;;;;;;16.92;9.73;;;;;;;;;;5048660;28;20039;-80
2023/04/18 13:02:40;;;;;;;17.50;10.15;;;;;;;;;;5049365;28;20131;-82
2023/04/18 13:05:08;;;;;;;15.95;9.30;;;;;;;;;;5045440;28;20148;-82
2023/04/18 13:07:39;;;;;;;21.67;9.98;;;;;;;;;;5034328;28;20044;-82
2023/04/18 13:10:07;;;;;;;16.33;9.60;;;;;;;;;;5048973;28;20025;-82
2023/04/18 13:12:32;;;;;;;17.63;10.35;;;;;;;;;;5063691;28;20041;-83
2023/04/18 13:14:58;;;;;;;16.00;9.23;;;;;;;;;;5048861;28;20028;-82
2023/04/18 13:17:25;;;;;;;14.93;9.98;;;;;;;;;;5053461;28;20025;-83
2023/04/18 13:19:52;;;;;;;21.52;10.60;;;;;;;;;;5046568;28;20040;-81
2023/04/18 13:22:20;;;;;;;17.92;11.05;;;;;;;;;;5051164;28;20029;-80
2023/04/18 13:24:46;;;;;;;14.93;9.68;;;;;;;;;;5049868;28;20031;-80
2023/04/18 13:27:15;;;;;;;15.30;9.65;;;;;;;;;;5047291;28;20099;-81
2023/04/18 13:29:42;;;;;;;13.20;8.95;;;;;;;;;;5048363;28;21422;-80
2023/04/18 13:32:08;;;;;;;14.00;9.57;;;;;;;;;;5032687;28;20033;-82
2023/04/18 13:34:38;;;;;;;13.77;9.05;;;;;;;;;;5051155;28;20029;-78
2023/04/18 13:37:04;;;;;;;14.68;8.68;;;;;;;;;;5045849;28;20042;-80
2023/04/18 13:39:31;;;;;;;13.57;8.55;;;;;;;;;;5046451;28;20025;-81
2023/04/18 13:42:01;;;;;;;14.68;8.45;;;;;;;;;;5053998;28;20510;-83
2023/04/18 13:44:27;;;;;;;18.70;8.82;;;;;;;;;;5054460;28;20533;-81
2023/04/18 13:47:14;;;;;;;14.02;8.38;;;;;;;;;;5057819;28;20111;-83
2023/04/18 13:49:40;;;;;;;20.95;9.80;;;;;;;;;;5070372;28;20552;-83
2023/04/18 13:52:06;;;;;;;14.13;9.27;;;;;;;;;;5052280;28;20175;-80
2023/04/18 13:54:32;;;;;;;14.52;8.93;;;;;;;;;;5054913;28;20587;-81
2023/04/18 13:57:01;;;;;;;13.75;8.25;;;;;;;;;;5053727;28;20163;-80
2023/04/18 13:59:31;;;;;;;12.20;7.53;;;;;;;;;;5053287;28;20044;-82
2023/04/18 14:01:57;;;;;;;13.10;8.32;;;;;;;;;;5053914;28;20043;-81
2023/04/18 14:04:23;;;;;;;12.68;7.75;;;;;;;;;;5049927;28;20101;-81
2023/04/18 14:06:49;;;;;;;14.75;7.95;;;;;;;;;;5050837;28;20182;-82
2023/04/18 14:09:16;;;;;;;16.10;8.25;;;;;;;;;;5056266;28;20071;-83
2023/04/18 14:11:42;;;;;;;14.30;7.93;;;;;;;;;;5051791;28;20044;-82
2023/04/18 14:14:08;;;;;;;13.25;7.43;;;;;;;;;;5051070;28;20029;-81
2023/04/18 14:16:34;;;;;;;12.82;8.52;;;;;;;;;;5052187;28;20075;-80
2023/04/18 14:19:01;;;;;;;13.38;7.60;;;;;;;;;;5049030;28;20048;-81
2023/04/18 14:21:28;;;;;;;11.85;8.02;;;;;;;;;;5042033;28;20041;-78
2023/04/18 14:23:54;;;;;;;15.93;8.27;;;;;;;;;;5051097;28;20005;-81